createdAt,value
2023-05-05T04:20:18.378Z,49
2023-05-05T04:25:20.511Z,49
2023-05-05T04:30:23.609Z,49
2023-05-05T04:35:25.779Z,49
2023-05-05T04:40:28.059Z,49
2023-05-05T04:45:30.906Z,49
2023-05-05T04:50:33.996Z,49
2023-05-05T04:55:36.106Z,49
2023-05-05T05:00:39.062Z,49
2023-05-05T05:05:41.224Z,49
2023-05-05T05:10:44.197Z,49
2023-05-05T05:15:47.104Z,49
2023-05-05T05:20:55.216Z,49
2023-05-05T05:25:57.334Z,49
2023-05-05T05:30:59.470Z,49
2023-05-05T05:36:01.854Z,49
2023-05-05T05:41:03.889Z,49
2023-05-05T05:46:08.362Z,49
2023-05-05T05:51:09.801Z,49
2023-05-05T05:56:11.891Z,49
2023-05-05T06:01:14.197Z,49
2023-05-05T06:06:16.331Z,49
2023-05-05T06:11:19.963Z,50
2023-05-05T06:16:22.278Z,50
2023-05-05T06:21:24.402Z,50
2023-05-05T06:26:27.233Z,50
2023-05-05T06:31:31.683Z,50
2023-05-05T06:36:33.993Z,50
2023-05-05T06:41:40.639Z,50
2023-05-05T06:46:42.927Z,50
2023-05-05T06:51:49.757Z,50
2023-05-05T06:56:51.998Z,50
2023-05-05T07:01:54.241Z,50
2023-05-05T07:07:01.262Z,50
2023-05-05T07:12:09.378Z,50
2023-05-05T07:17:13.122Z,49
2023-05-05T07:22:15.491Z,49
2023-05-05T07:27:17.696Z,49
2023-05-05T07:32:27.492Z,49
2023-05-05T07:37:30.501Z,49
2023-05-05T07:42:32.827Z,49
2023-05-05T07:47:36.413Z,49
2023-05-05T07:52:48.142Z,49
2023-05-05T07:57:45.768Z,49
2023-05-05T08:02:48.201Z,50
2023-05-05T08:07:50.920Z,50
2023-05-05T08:12:56.229Z,50
2023-05-05T08:17:58.321Z,50
2023-05-05T08:23:00.515Z,50
2023-05-05T08:28:02.609Z,50
2023-05-05T08:33:06.247Z,50
2023-05-05T08:38:09.952Z,50
2023-05-05T08:43:12.004Z,50
2023-05-05T08:48:14.906Z,50
2023-05-05T08:53:18.884Z,50
2023-05-05T08:58:23.182Z,50
2023-05-05T09:03:25.315Z,50
2023-05-05T09:08:28.366Z,50
2023-05-05T09:13:31.325Z,50
2023-05-05T09:18:34.986Z,50
2023-05-05T09:23:43.666Z,50
2023-05-05T09:28:45.718Z,50
2023-05-05T09:33:47.953Z,50
2023-05-05T09:38:50.226Z,50
2023-05-05T09:43:52.488Z,50
2023-05-05T09:48:54.460Z,50
2023-05-05T09:53:56.696Z,50
2023-05-05T09:59:00.249Z,50
2023-05-05T10:04:08.491Z,50
2023-05-05T10:09:12.351Z,50
2023-05-05T10:14:14.345Z,50
2023-05-05T10:19:16.488Z,50
2023-05-05T10:24:19.484Z,50
2023-05-05T10:29:22.480Z,50
2023-05-05T10:34:25.356Z,50
2023-05-05T10:39:28.353Z,50
2023-05-05T10:44:30.368Z,50
2023-05-05T10:49:37.283Z,50
2023-05-05T10:54:41.154Z,50
2023-05-05T10:59:43.155Z,50
2023-05-05T11:04:46.340Z,50
2023-05-05T11:09:53.158Z,50
2023-05-05T11:14:55.173Z,50
2023-05-05T11:19:57.417Z,50
2023-05-05T11:24:59.902Z,50
2023-05-05T11:30:04.931Z,50
2023-05-05T11:35:07.055Z,50
2023-05-05T11:40:09.561Z,50
2023-05-05T11:45:11.438Z,50
2023-05-05T11:50:13.575Z,50
2023-05-05T11:55:17.248Z,50
2023-05-05T12:00:21.046Z,50
2023-05-05T12:05:23.156Z,50
2023-05-05T12:10:26.924Z,50
2023-05-05T12:15:28.949Z,50
2023-05-05T12:20:31.212Z,49
2023-05-05T12:25:37.290Z,49
2023-05-05T12:30:40.301Z,49
2023-05-05T12:35:42.338Z,49
2023-05-05T12:40:46.036Z,49
2023-05-05T12:45:49.163Z,49
2023-05-05T12:50:51.942Z,48
2023-05-05T12:55:54.285Z,48
2023-05-05T13:01:00.978Z,48
2023-05-05T13:06:04.002Z,48
2023-05-05T13:11:06.246Z,48
2023-05-05T13:16:09.040Z,48
2023-05-05T13:21:11.919Z,48
2023-05-05T13:26:14.272Z,47
2023-05-05T13:31:16.493Z,47
2023-05-05T13:36:19.328Z,47
2023-05-05T13:41:22.572Z,47
2023-05-05T13:46:29.184Z,47
2023-05-05T13:51:32.042Z,47
2023-05-05T13:56:38.825Z,47
2023-05-05T14:01:41.662Z,47
2023-05-05T14:06:43.985Z,47
2023-05-05T14:11:46.890Z,46
2023-05-05T14:16:50.297Z,46
2023-05-05T14:21:52.588Z,46
2023-05-05T14:26:55.188Z,46
2023-05-05T14:31:58.536Z,46
2023-05-05T14:37:05.300Z,45
2023-05-05T14:42:07.659Z,45
2023-05-05T14:47:09.854Z,45
2023-05-05T14:52:18.068Z,45
2023-05-05T14:57:22.570Z,45
2023-05-05T15:02:24.650Z,44
2023-05-05T15:07:26.934Z,44
2023-05-05T15:12:29.254Z,44
2023-05-05T15:17:31.284Z,43
2023-05-05T15:22:33.575Z,43
2023-05-05T15:27:37.461Z,43
2023-05-05T15:32:44.231Z,42
2023-05-05T15:37:46.360Z,42
2023-05-05T15:42:48.540Z,42
2023-05-05T15:47:51.601Z,42
2023-05-05T15:52:54.408Z,42
2023-05-05T15:58:01.324Z,42
2023-05-05T16:03:03.434Z,42
2023-05-05T16:08:06.380Z,42
2023-05-05T16:13:10.805Z,42
2023-05-05T16:18:13.800Z,43
2023-05-05T16:23:16.700Z,43
2023-05-05T16:28:21.304Z,43
2023-05-05T16:33:23.502Z,43
2023-05-05T16:38:27.818Z,43
2023-05-05T16:43:30.017Z,44
2023-05-05T16:48:34.341Z,44
2023-05-05T16:53:37.285Z,44
2023-05-05T16:58:39.512Z,44
2023-05-05T17:03:41.557Z,44
2023-05-05T17:08:43.866Z,44
2023-05-05T17:13:46.828Z,44
2023-05-05T17:18:49.820Z,44
2023-05-05T17:23:52.666Z,44
2023-05-05T17:28:55.726Z,44
2023-05-05T17:33:57.805Z,44
2023-05-05T17:39:00.207Z,44
2023-05-05T17:44:02.424Z,44
2023-05-05T17:49:10.522Z,45
2023-05-05T17:54:13.590Z,45
2023-05-05T17:59:15.876Z,45
2023-05-05T18:04:17.815Z,45
2023-05-05T18:09:19.961Z,45
2023-05-05T18:14:22.284Z,45
2023-05-05T18:19:28.874Z,44
2023-05-05T18:24:31.831Z,44
2023-05-05T18:29:34.962Z,44
2023-05-05T18:34:41.856Z,43
2023-05-05T18:39:44.260Z,44
2023-05-05T18:44:47.401Z,44
2023-05-05T18:49:49.397Z,44
2023-05-05T18:54:52.245Z,44
2023-05-05T18:59:59.240Z,44
2023-05-05T19:05:01.528Z,44
2023-05-05T19:10:03.799Z,44
2023-05-05T19:15:05.895Z,44
2023-05-05T19:20:08.202Z,44
2023-05-05T19:25:10.538Z,44
2023-05-05T19:30:13.486Z,44
2023-05-05T19:35:15.473Z,44
2023-05-05T19:40:17.605Z,44
2023-05-05T19:45:26.072Z,44
2023-05-05T19:50:28.817Z,44
2023-05-05T19:55:31.900Z,44
2023-05-05T20:00:34.829Z,44
2023-05-05T20:05:37.806Z,44
2023-05-05T20:10:39.879Z,44
2023-05-05T20:15:42.302Z,44
2023-05-05T20:20:47.680Z,44
2023-05-05T20:25:51.414Z,44
2023-05-05T20:30:54.339Z,44
2023-05-05T20:35:56.529Z,44
2023-05-05T20:40:58.620Z,44
2023-05-05T20:46:01.818Z,44
2023-05-05T20:51:03.939Z,45
2023-05-05T20:56:07.238Z,45
2023-05-05T21:01:09.220Z,45
2023-05-05T21:06:13.361Z,45
2023-05-05T21:11:16.317Z,45
2023-05-05T21:16:20.339Z,45
2023-05-05T21:21:23.722Z,45
2023-05-05T21:26:26.022Z,45
2023-05-05T21:31:29.700Z,45
2023-05-05T21:36:31.987Z,45
2023-05-05T21:41:35.562Z,46
2023-05-05T21:46:40.226Z,46
2023-05-05T21:51:42.294Z,46
2023-05-05T21:56:44.377Z,46
2023-05-05T22:01:51.604Z,46
2023-05-05T22:06:58.266Z,46
2023-05-05T22:12:01.123Z,46
2023-05-05T22:17:03.401Z,46
2023-05-05T22:22:05.527Z,46
2023-05-05T22:27:12.297Z,46
2023-05-05T22:32:14.627Z,46
2023-05-05T22:37:16.720Z,46
2023-05-05T22:42:21.108Z,46
2023-05-05T22:47:23.504Z,46
2023-05-05T22:52:26.994Z,46
2023-05-05T22:57:29.304Z,46
2023-05-05T23:02:31.432Z,46
2023-05-05T23:07:33.550Z,46
2023-05-05T23:12:37.186Z,46
